Ontario, Oregon
Current Conditions -  °F | °C
As of 2:19 AM on Wednesday 28 Jan 2015 (Local Time) from KONO Reporting Station
Moderate Fog Moderate Fog  
Wind Chill: 34°   Ceiling: 500
Heat Index: 34°   Visibility: 0.5mi
Dew Point: 32°   Wind: 0mph
Humidity: 92%   Direction: NA
Pressure: 30.26"   Gusts: NA
Location:  44.03°N, 116.96°W
Report Text: KONO 280919Z AUTO 00000KT 1/2SM FG VV005 01/00 A3026 RMK AO2 T00110000
Loading
Personal Weather Stations






























Interactive Weather Map New forecast layout! Learn more

10-Day Weather Forecast

Advertisements
Track Severe Weather on mobile